< < Back
Terminal Aerodrome Forecast


Current Version              Previous Versions:   1  2  3  4  5  6  7  8  9  

Terminal Aerodrome Forecast

779
FTUS42 KTAE 291120
TAFDHN
TAF
KDHN 291120Z 2912/3012 30005KT P6SM FEW040
     FM291800 33006KT P6SM VCTS SCT040CB
      TEMPO 2918/2922 VRB15G25KT 2SM +TSRA BKN030CB
     FM300100 27004KT P6SM BKN040=

Latest METAR

878
SAUS70 KWBC 292156
MTRDHN
METAR KDHN 292153Z 27004KT 10SM FEW050 30/24 A2997 RMK AO2 SLP142
T03000244


USA.gov is the U.S. government's official web portal to all federal, state and local government web resources and services.